Time;durP1;ratioP1;P1;durP2;ratioP2;P2;SDS_P1;SDS_P2;PMS_P1;PMS_P2;Temp;Humidity;BMP_temperature;BMP_pressure;BME280_temperature;BME280_humidity;BME280_pressure;Samples;Min_cycle;Max_cycle;Signal;HPM_P1;HPM_P2
2023/04/09 00:02:22;;;;;;;2.90;2.67;;;19.40;52.90;;;;;;4964270;28;20189;-70
2023/04/09 00:04:48;;;;;;;2.45;2.25;;;19.40;52.90;;;;;;4975474;28;20275;-69
2023/04/09 00:07:14;;;;;;;2.45;2.22;;;19.40;52.90;;;;;;4983484;28;20188;-70
2023/04/09 00:09:40;;;;;;;2.63;2.42;;;19.40;52.90;;;;;;4981367;28;20193;-69
2023/04/09 00:12:05;;;;;;;2.80;2.60;;;19.40;52.90;;;;;;4972298;28;20213;-70
2023/04/09 00:14:31;;;;;;;2.72;2.53;;;19.40;53.50;;;;;;4981599;28;20205;-69
2023/04/09 00:16:57;;;;;;;2.90;2.70;;;19.40;52.90;;;;;;4960839;28;20184;-69
2023/04/09 00:19:22;;;;;;;2.55;2.45;;;19.40;52.90;;;;;;4983381;28;20188;-70
2023/04/09 00:21:48;;;;;;;3.35;2.72;;;19.40;52.90;;;;;;4971894;28;20209;-69
2023/04/09 00:24:14;;;;;;;2.83;2.63;;;19.40;52.90;;;;;;4972138;28;20197;-69
2023/04/09 00:26:39;;;;;;;2.97;2.78;;;19.40;52.90;;;;;;4956054;28;20228;-69
2023/04/09 00:29:05;;;;;;;2.55;2.35;;;19.40;52.90;;;;;;4972062;28;20189;-69
2023/04/09 00:31:32;;;;;;;2.80;2.60;;;19.40;52.90;;;;;;4971509;28;20224;-69
2023/04/09 00:33:57;;;;;;;2.70;2.50;;;19.40;52.90;;;;;;4971957;28;20611;-69
2023/04/09 00:36:23;;;;;;;2.92;2.70;;;19.40;52.90;;;;;;4972104;28;20201;-69
2023/04/09 00:38:50;;;;;;;2.72;2.50;;;19.40;52.80;;;;;;4971975;28;20186;-69
2023/04/09 00:41:16;;;;;;;3.03;2.80;;;19.40;52.90;;;;;;4971774;28;20206;-69
2023/04/09 00:43:42;;;;;;;3.22;2.92;;;19.30;52.80;;;;;;4956797;28;20198;-69
2023/04/09 00:46:08;;;;;;;2.72;2.53;;;19.30;52.80;;;;;;4983662;28;20212;-69
2023/04/09 00:48:34;;;;;;;3.33;3.03;;;19.40;52.80;;;;;;4976837;28;20192;-69
2023/04/09 00:51:00;;;;;;;2.63;2.42;;;19.40;52.90;;;;;;4986953;28;20307;-69
2023/04/09 00:53:27;;;;;;;2.90;2.70;;;19.30;52.80;;;;;;4978751;28;20216;-69
2023/04/09 00:55:54;;;;;;;2.92;2.70;;;19.40;52.90;;;;;;4967115;28;20197;-69
2023/04/09 00:58:20;;;;;;;3.00;2.80;;;19.30;52.80;;;;;;4975381;28;20248;-69
2023/04/09 01:00:46;;;;;;;2.80;2.60;;;19.30;52.80;;;;;;4987337;28;20215;-69
2023/04/09 01:03:12;;;;;;;2.83;2.53;;;19.30;52.80;;;;;;4970543;28;20189;-69
2023/04/09 01:06:09;;;;;;;2.63;2.42;;;19.40;52.80;;;;;;4977100;28;20312;-69
2023/04/09 01:08:55;;;;;;;2.70;2.50;;;19.30;52.70;;;;;;4976177;28;20201;-69
2023/04/09 01:11:50;;;;;;;2.80;2.60;;;19.30;52.70;;;;;;4963307;28;20213;-69
2023/04/09 01:15:04;;;;;;;3.08;2.78;;;19.30;52.70;;;;;;4983247;28;20273;-69
2023/04/09 01:18:29;;;;;;;2.85;2.65;;;19.30;52.70;;;;;;4934350;28;20213;-69
2023/04/09 01:21:12;;;;;;;3.00;2.80;;;19.40;52.80;;;;;;4961324;28;20759;-69
2023/04/09 01:24:30;;;;;;;3.30;3.00;;;19.30;52.70;;;;;;4959223;28;20770;-69
2023/04/09 01:27:04;;;;;;;2.83;2.60;;;19.40;52.80;;;;;;4972554;28;20213;-69
2023/04/09 01:29:50;;;;;;;3.28;3.05;;;19.40;52.70;;;;;;4973750;28;20225;-69
2023/04/09 01:32:19;;;;;;;2.70;2.50;;;19.40;52.80;;;;;;4974758;28;20186;-69
2023/04/09 01:34:47;;;;;;;4.18;3.15;;;19.40;52.80;;;;;;4982621;28;20199;-69
2023/04/09 01:37:15;;;;;;;3.08;2.88;;;19.30;52.60;;;;;;4959044;28;20240;-69
2023/04/09 01:39:42;;;;;;;2.90;2.70;;;19.30;52.60;;;;;;4976349;28;20213;-69
2023/04/09 01:42:11;;;;;;;3.30;3.00;;;19.40;52.70;;;;;;4980843;28;20210;-69
2023/04/09 01:44:39;;;;;;;2.90;2.70;;;19.30;52.60;;;;;;4975303;28;20193;-69
2023/04/09 01:47:07;;;;;;;3.05;2.83;;;19.30;52.60;;;;;;4986409;28;20185;-69
2023/04/09 01:49:35;;;;;;;2.90;2.70;;;19.40;52.70;;;;;;4977377;28;20190;-69
2023/04/09 01:52:02;;;;;;;3.33;3.03;;;19.40;52.70;;;;;;4974258;28;20209;-69
2023/04/09 01:54:27;;;;;;;3.28;3.08;;;19.40;52.70;;;;;;4974384;28;20213;-70
2023/04/09 01:56:56;;;;;;;3.30;3.00;;;19.40;52.70;;;;;;4974420;28;20215;-69
2023/04/09 01:59:22;;;;;;;3.35;3.05;;;19.30;52.60;;;;;;4999028;28;20200;-69
2023/04/09 02:02:14;;;;;;;3.55;3.25;;;19.30;52.70;;;;;;4974079;28;20218;-69
2023/04/09 02:04:47;;;;;;;3.15;2.88;;;19.40;52.80;;;;;;4974385;28;20194;-69
2023/04/09 02:07:41;;;;;;;2.83;2.63;;;19.40;52.80;;;;;;4974555;28;20185;-70
2023/04/09 02:10:09;;;;;;;3.20;3.00;;;19.30;52.60;;;;;;4959016;28;20194;-69
2023/04/09 02:12:37;;;;;;;2.83;2.60;;;19.40;52.70;;;;;;4957699;28;20194;-69
2023/04/09 02:15:06;;;;;;;3.30;3.00;;;19.30;52.60;;;;;;4966261;28;20726;-69
2023/04/09 02:17:32;;;;;;;3.17;2.97;;;19.30;52.60;;;;;;4973928;28;20273;-68
2023/04/09 02:19:57;;;;;;;2.40;2.20;;;19.40;52.70;;;;;;4982752;28;20279;-69
2023/04/09 02:22:23;;;;;;;3.20;2.80;;;19.30;52.70;;;;;;4980329;28;20200;-69
2023/04/09 02:24:49;;;;;;;3.20;2.90;;;19.40;52.70;;;;;;4982634;28;20273;-69
2023/04/09 02:27:15;;;;;;;3.00;2.80;;;19.40;52.70;;;;;;4973955;28;20240;-69
2023/04/09 02:29:41;;;;;;;2.75;2.55;;;19.30;52.60;;;;;;4973490;28;20198;-69
2023/04/09 02:32:07;;;;;;;2.88;2.67;;;19.40;52.70;;;;;;4978091;28;20209;-69
2023/04/09 02:34:33;;;;;;;2.85;2.65;;;19.40;52.70;;;;;;4960732;28;20204;-68
2023/04/09 02:36:59;;;;;;;3.10;2.90;;;19.30;52.60;;;;;;4973513;28;20189;-69
2023/04/09 02:39:25;;;;;;;3.10;2.90;;;19.40;52.70;;;;;;4973573;28;20197;-69
2023/04/09 02:41:52;;;;;;;3.47;3.17;;;19.40;52.70;;;;;;4983954;28;20215;-69
2023/04/09 02:44:17;;;;;;;3.17;2.97;;;19.30;52.60;;;;;;4986692;28;20186;-69
2023/04/09 02:46:45;;;;;;;2.78;2.58;;;19.30;52.60;;;;;;4958502;28;20763;-69
2023/04/09 02:49:12;;;;;;;2.97;2.70;;;19.40;52.70;;;;;;4985021;28;20185;-69
2023/04/09 02:51:37;;;;;;;3.20;2.90;;;19.30;52.60;;;;;;4983702;28;20236;-69
2023/04/09 02:54:03;;;;;;;3.28;2.97;;;19.30;52.60;;;;;;4977297;28;20185;-69
2023/04/09 02:56:29;;;;;;;3.10;2.80;;;19.30;52.60;;;;;;4992612;28;20208;-69
2023/04/09 02:58:55;;;;;;;3.40;3.10;;;19.40;52.70;;;;;;4985599;28;20192;-69
2023/04/09 03:01:21;;;;;;;3.17;2.97;;;19.30;52.60;;;;;;4977925;28;20225;-69
2023/04/09 03:03:47;;;;;;;3.30;3.00;;;19.30;52.60;;;;;;4966504;28;20200;-69
2023/04/09 03:06:13;;;;;;;3.08;2.78;;;19.30;52.60;;;;;;4991947;28;20288;-69
2023/04/09 03:08:39;;;;;;;3.40;3.10;;;19.30;52.60;;;;;;4968198;28;20248;-69
2023/04/09 03:11:05;;;;;;;3.58;3.28;;;19.30;52.60;;;;;;4988447;28;20210;-69
2023/04/09 03:13:30;;;;;;;3.42;3.13;;;19.30;52.60;;;;;;4964892;28;20201;-69
2023/04/09 03:15:57;;;;;;;3.58;3.28;;;19.40;52.70;;;;;;4980725;28;20194;-69
2023/04/09 03:18:22;;;;;;;3.05;2.85;;;19.30;52.60;;;;;;4973265;28;20244;-69
2023/04/09 03:20:48;;;;;;;3.20;3.00;;;19.40;52.70;;;;;;4966270;28;20223;-69
2023/04/09 03:23:15;;;;;;;3.20;2.92;;;19.30;52.60;;;;;;4979152;28;20196;-69
2023/04/09 03:25:44;;;;;;;3.20;3.00;;;19.30;52.60;;;;;;4982142;28;20214;-69
2023/04/09 03:28:13;;;;;;;3.40;3.17;;;19.30;52.60;;;;;;4985690;28;20186;-69
2023/04/09 03:30:46;;;;;;;3.40;3.10;;;19.30;52.60;;;;;;4981805;28;20615;-69
2023/04/09 03:33:13;;;;;;;2.90;2.70;;;19.30;52.60;;;;;;4986997;28;20536;-69
2023/04/09 03:35:56;;;;;;;3.65;3.35;;;19.40;52.70;;;;;;4991477;28;20204;-69
2023/04/09 03:38:37;;;;;;;3.30;3.00;;;19.40;52.70;;;;;;4991666;28;20200;-69
2023/04/09 03:41:09;;;;;;;3.33;3.05;;;19.30;52.60;;;;;;4980312;28;20747;-69
2023/04/09 03:43:35;;;;;;;3.30;3.00;;;19.30;52.60;;;;;;4980000;28;20192;-69
2023/04/09 03:46:01;;;;;;;2.75;2.55;;;19.30;52.60;;;;;;4991668;28;20231;-69
2023/04/09 03:48:26;;;;;;;3.05;2.85;;;19.40;52.70;;;;;;4967904;28;20177;-69
2023/04/09 03:50:53;;;;;;;3.13;2.90;;;19.30;52.60;;;;;;4980897;28;20346;-69
2023/04/09 03:53:27;;;;;;;3.22;3.03;;;19.40;52.70;;;;;;4972204;28;20279;-69
2023/04/09 03:56:00;;;;;;;2.88;2.67;;;19.30;52.60;;;;;;4983771;28;20196;-69
2023/04/09 03:58:26;;;;;;;2.97;2.78;;;19.30;52.60;;;;;;4991569;28;20212;-70
2023/04/09 04:00:53;;;;;;;3.00;2.80;;;19.40;52.70;;;;;;4983074;28;20214;-69
2023/04/09 04:03:39;;;;;;;3.08;2.78;;;19.40;52.70;;;;;;4983430;28;20208;-69
2023/04/09 04:06:10;;;;;;;3.03;2.83;;;19.30;52.60;;;;;;4972011;28;20220;-69
2023/04/09 04:08:44;;;;;;;2.80;2.60;;;19.30;52.60;;;;;;4980281;28;20206;-69
2023/04/09 04:11:10;;;;;;;3.28;2.97;;;19.30;52.60;;;;;;4984294;28;20275;-69
2023/04/09 04:13:38;;;;;;;3.20;3.00;;;19.30;52.60;;;;;;4983554;28;20192;-69
2023/04/09 04:16:08;;;;;;;2.60;2.40;;;19.30;52.60;;;;;;4980053;28;20240;-69
2023/04/09 04:18:36;;;;;;;2.72;2.53;;;19.40;52.60;;;;;;4971148;28;20190;-69
2023/04/09 04:21:02;;;;;;;3.15;2.85;;;19.30;52.60;;;;;;4982919;28;20259;-69
2023/04/09 04:23:29;;;;;;;2.75;2.53;;;19.30;52.50;;;;;;4984896;28;20202;-69
2023/04/09 04:26:08;;;;;;;3.20;2.97;;;19.30;52.60;;;;;;4982778;28;20231;-69
2023/04/09 04:28:36;;;;;;;2.42;2.30;;;19.30;52.60;;;;;;4978680;28;20189;-69
2023/04/09 04:31:11;;;;;;;2.65;2.45;;;19.30;52.60;;;;;;4990829;28;20231;-69
2023/04/09 04:33:40;;;;;;;2.78;2.58;;;19.30;52.60;;;;;;4975184;28;20188;-69
2023/04/09 04:36:13;;;;;;;3.13;2.92;;;19.30;52.60;;;;;;4987769;28;20236;-69
2023/04/09 04:38:46;;;;;;;3.20;3.00;;;19.30;52.60;;;;;;4987940;28;20243;-69
2023/04/09 04:41:17;;;;;;;3.47;3.25;;;19.30;52.60;;;;;;4979680;28;20216;-69
2023/04/09 04:43:50;;;;;;;3.17;2.97;;;19.30;52.50;;;;;;4979453;28;20194;-69
2023/04/09 04:46:21;;;;;;;3.42;3.13;;;19.30;52.60;;;;;;4981061;28;20220;-69
2023/04/09 04:48:47;;;;;;;3.10;2.90;;;19.30;52.50;;;;;;4988885;28;20283;-69
2023/04/09 04:51:13;;;;;;;2.97;2.78;;;19.30;52.50;;;;;;4983211;28;20400;-69
2023/04/09 04:53:45;;;;;;;3.13;2.92;;;19.30;52.50;;;;;;4991030;28;20570;-69
2023/04/09 04:56:14;;;;;;;3.00;2.80;;;19.30;52.50;;;;;;4975576;28;20228;-70
2023/04/09 04:58:47;;;;;;;2.95;2.75;;;19.30;52.50;;;;;;4983068;28;20200;-69
2023/04/09 05:01:16;;;;;;;2.78;2.58;;;19.30;52.50;;;;;;4991037;28;20272;-69
2023/04/09 05:03:42;;;;;;;3.13;2.92;;;19.30;52.50;;;;;;4990845;28;20212;-69
2023/04/09 05:06:23;;;;;;;3.10;2.90;;;19.30;52.50;;;;;;4971207;28;20272;-69
2023/04/09 05:08:49;;;;;;;2.88;2.67;;;19.30;52.50;;;;;;4974937;28;20193;-69
2023/04/09 05:11:15;;;;;;;3.10;2.90;;;19.30;52.50;;;;;;4982547;28;20251;-69
2023/04/09 05:13:43;;;;;;;2.88;2.67;;;19.30;52.50;;;;;;4990669;28;20711;-69
2023/04/09 05:16:17;;;;;;;2.97;2.78;;;19.30;52.50;;;;;;4991127;28;20649;-69
2023/04/09 05:18:45;;;;;;;2.70;2.50;;;19.30;53.00;;;;;;4974530;28;20216;-69
2023/04/09 05:21:11;;;;;;;3.00;2.80;;;19.30;52.50;;;;;;4970685;28;20263;-69
2023/04/09 05:23:41;;;;;;;3.28;3.08;;;19.30;52.50;;;;;;4987228;28;20192;-69
2023/04/09 05:26:07;;;;;;;2.90;2.70;;;19.40;52.50;;;;;;4979516;28;20643;-69
2023/04/09 05:28:55;;;;;;;2.80;2.60;;;19.30;52.40;;;;;;4974374;28;20280;-69
2023/04/09 05:31:22;;;;;;;3.17;2.90;;;19.30;52.50;;;;;;4987840;28;20299;-69
2023/04/09 05:33:54;;;;;;;3.47;3.17;;;19.30;52.50;;;;;;4978214;28;20190;-69
2023/04/09 05:36:26;;;;;;;2.72;2.53;;;19.40;52.50;;;;;;4978869;28;20197;-69
2023/04/09 05:38:52;;;;;;;3.28;3.00;;;19.30;52.50;;;;;;4995507;28;20208;-69
2023/04/09 05:41:17;;;;;;;3.30;3.10;;;19.30;52.60;;;;;;4981409;28;20212;-69
2023/04/09 05:43:59;;;;;;;2.83;2.63;;;19.30;52.60;;;;;;4992612;28;20197;-69
2023/04/09 05:46:26;;;;;;;3.20;3.00;;;19.40;52.50;;;;;;4970098;28;20213;-69
2023/04/09 05:48:52;;;;;;;3.15;2.95;;;19.30;52.50;;;;;;4985757;28;20192;-69
2023/04/09 05:51:17;;;;;;;3.25;3.05;;;19.30;52.40;;;;;;4993755;28;20266;-69
2023/04/09 05:53:43;;;;;;;2.80;2.60;;;19.30;52.40;;;;;;4994168;28;20189;-69
2023/04/09 05:56:17;;;;;;;2.97;2.78;;;19.30;52.50;;;;;;4970273;28;20196;-69
2023/04/09 05:58:50;;;;;;;2.70;2.50;;;19.30;52.50;;;;;;4985945;28;20196;-69
2023/04/09 06:01:16;;;;;;;2.80;2.60;;;19.30;52.50;;;;;;4970759;28;20205;-69
2023/04/09 06:03:42;;;;;;;3.03;2.83;;;19.30;52.50;;;;;;4985104;28;20205;-69
2023/04/09 06:06:08;;;;;;;2.80;2.60;;;19.40;52.50;;;;;;4985474;28;20295;-69
2023/04/09 06:08:34;;;;;;;2.75;2.55;;;19.30;52.40;;;;;;4993942;28;20197;-69
2023/04/09 06:11:00;;;;;;;3.22;2.95;;;19.30;52.40;;;;;;4985132;28;20198;-69
2023/04/09 06:13:25;;;;;;;2.47;2.30;;;19.40;52.50;;;;;;4993575;28;20189;-69
2023/04/09 06:15:51;;;;;;;2.95;2.75;;;19.40;53.00;;;;;;4993637;28;20204;-69
2023/04/09 06:18:17;;;;;;;2.67;2.50;;;19.40;52.40;;;;;;4988294;28;20276;-69
2023/04/09 06:20:42;;;;;;;2.63;2.45;;;19.40;52.40;;;;;;4993567;28;20213;-69
2023/04/09 06:23:09;;;;;;;2.90;2.70;;;19.40;52.40;;;;;;4969079;28;20548;-69
2023/04/09 06:25:35;;;;;;;2.97;2.78;;;19.40;52.40;;;;;;4977140;28;20227;-69
2023/04/09 06:28:01;;;;;;;3.08;2.85;;;19.40;52.40;;;;;;4992772;28;20228;-69
2023/04/09 06:30:28;;;;;;;3.42;3.10;;;19.40;52.40;;;;;;4981780;28;20209;-69
2023/04/09 06:32:54;;;;;;;3.05;2.85;;;19.40;52.40;;;;;;4975120;28;20194;-69
2023/04/09 06:35:20;;;;;;;2.95;2.75;;;19.50;52.50;;;;;;4983536;28;20181;-69
2023/04/09 06:37:45;;;;;;;2.80;2.60;;;19.40;52.40;;;;;;4986036;28;20197;-69
2023/04/09 06:40:12;;;;;;;3.20;3.00;;;19.40;52.40;;;;;;4981379;28;20245;-69
2023/04/09 06:42:37;;;;;;;2.80;2.60;;;19.40;52.40;;;;;;4987235;28;20271;-69
2023/04/09 06:45:11;;;;;;;3.20;3.00;;;19.40;52.40;;;;;;4977779;28;20219;-69
2023/04/09 06:47:36;;;;;;;3.10;2.90;;;19.40;52.40;;;;;;4984925;28;20197;-69
2023/04/09 06:50:02;;;;;;;3.03;2.83;;;19.40;52.40;;;;;;4972011;28;20195;-69
2023/04/09 06:52:28;;;;;;;2.88;2.67;;;19.40;52.30;;;;;;4978858;28;20275;-69
2023/04/09 06:54:54;;;;;;;2.97;2.70;;;19.50;52.30;;;;;;4959368;28;20188;-69
2023/04/09 06:57:20;;;;;;;3.20;3.00;;;19.50;52.30;;;;;;4957246;28;20217;-69
2023/04/09 06:59:45;;;;;;;3.15;2.92;;;19.50;52.30;;;;;;4989316;28;20287;-69
2023/04/09 07:02:11;;;;;;;3.00;2.80;;;19.50;52.30;;;;;;4982353;28;20300;-69
2023/04/09 07:04:37;;;;;;;3.00;2.80;;;19.50;52.30;;;;;;4971733;28;20192;-69
2023/04/09 07:07:03;;;;;;;3.25;2.85;;;19.40;52.50;;;;;;4984598;28;20223;-69
2023/04/09 07:09:29;;;;;;;2.88;2.67;;;19.50;52.50;;;;;;4987191;28;20185;-69
2023/04/09 07:11:54;;;;;;;3.15;2.95;;;19.50;52.50;;;;;;4980393;28;20209;-70
2023/04/09 07:14:20;;;;;;;3.08;2.75;;;19.50;52.60;;;;;;4988317;28;20193;-70
2023/04/09 07:16:46;;;;;;;3.45;3.20;;;19.50;52.50;;;;;;4981855;28;20794;-70
2023/04/09 07:19:12;;;;;;;3.15;2.88;;;19.50;52.50;;;;;;4982288;28;20205;-70
2023/04/09 07:21:37;;;;;;;2.95;2.50;;;19.50;52.40;;;;;;4987721;28;20222;-70
2023/04/09 07:24:03;;;;;;;2.92;2.53;;;19.50;52.40;;;;;;4976132;28;20217;-70
2023/04/09 07:26:29;;;;;;;3.17;2.97;;;19.50;52.40;;;;;;4984850;28;20267;-71
2023/04/09 07:28:55;;;;;;;3.55;2.90;;;19.50;52.40;;;;;;4993331;28;20243;-70
2023/04/09 07:31:21;;;;;;;3.50;3.28;;;19.50;52.30;;;;;;4979772;28;20221;-70
2023/04/09 07:33:47;;;;;;;3.30;3.00;;;19.50;52.30;;;;;;4981972;28;20194;-70
2023/04/09 07:36:12;;;;;;;2.90;2.70;;;19.50;52.30;;;;;;4980777;28;20261;-70
2023/04/09 07:38:38;;;;;;;3.05;2.85;;;19.50;52.30;;;;;;4988415;28;20204;-70
2023/04/09 07:41:04;;;;;;;3.40;3.20;;;19.50;52.30;;;;;;4983330;28;20240;-70
2023/04/09 07:43:31;;;;;;;3.03;2.83;;;19.50;52.90;;;;;;4991542;28;20243;-70
2023/04/09 07:45:56;;;;;;;3.25;3.05;;;19.50;52.30;;;;;;4975796;28;20656;-70
2023/04/09 07:48:22;;;;;;;3.85;3.55;;;19.50;52.80;;;;;;4983790;28;20189;-70
2023/04/09 07:50:48;;;;;;;3.45;3.15;;;19.50;52.20;;;;;;4992719;28;20303;-71
2023/04/09 07:53:14;;;;;;;3.95;3.60;;;19.50;52.20;;;;;;4991420;28;20283;-70
2023/04/09 07:55:40;;;;;;;3.60;3.22;;;19.50;52.20;;;;;;4992095;28;20191;-70
2023/04/09 07:58:06;;;;;;;4.28;3.88;;;19.60;52.10;;;;;;4983467;28;20185;-70
2023/04/09 08:00:32;;;;;;;3.70;3.40;;;19.60;52.00;;;;;;4988019;28;20245;-70
2023/04/09 08:02:58;;;;;;;3.72;3.42;;;19.60;52.00;;;;;;4988996;28;20193;-70
2023/04/09 08:05:24;;;;;;;4.10;3.40;;;19.60;52.00;;;;;;4992722;28;20628;-70
2023/04/09 08:07:51;;;;;;;3.53;3.22;;;19.60;52.10;;;;;;4991591;28;20200;-70
2023/04/09 08:10:17;;;;;;;3.72;3.42;;;19.60;52.10;;;;;;4984510;28;20243;-70
2023/04/09 08:12:43;;;;;;;3.88;3.53;;;19.60;52.00;;;;;;4992876;28;20217;-70
2023/04/09 08:15:09;;;;;;;4.03;3.63;;;19.60;52.00;;;;;;4979974;28;20262;-70
2023/04/09 08:17:38;;;;;;;3.40;3.20;;;19.60;52.00;;;;;;4985866;28;20189;-71
2023/04/09 08:20:05;;;;;;;4.43;3.63;;;19.60;52.00;;;;;;4973568;28;20636;-70
2023/04/09 08:22:31;;;;;;;3.60;3.30;;;19.60;51.90;;;;;;4968909;28;20699;-70
2023/04/09 08:24:57;;;;;;;4.10;3.28;;;19.60;52.00;;;;;;4991105;28;20645;-70
2023/04/09 08:27:23;;;;;;;3.88;3.40;;;19.60;52.00;;;;;;4987189;28;20296;-70
2023/04/09 08:29:49;;;;;;;3.35;3.15;;;19.60;52.00;;;;;;4971830;28;20190;-70
2023/04/09 08:32:15;;;;;;;3.58;3.28;;;19.60;52.00;;;;;;4974506;28;20238;-70
2023/04/09 08:34:41;;;;;;;3.40;3.10;;;19.60;52.00;;;;;;4984137;28;20193;-70
2023/04/09 08:37:07;;;;;;;3.95;3.65;;;19.60;51.90;;;;;;4991063;28;20196;-70
2023/04/09 08:39:33;;;;;;;3.85;3.40;;;19.70;52.50;;;;;;4977745;28;20193;-70
2023/04/09 08:42:02;;;;;;;3.38;3.08;;;19.70;51.80;;;;;;5003766;28;20224;-70
2023/04/09 08:44:29;;;;;;;3.65;3.35;;;19.70;51.90;;;;;;4963718;28;20216;-71
2023/04/09 08:46:55;;;;;;;3.53;3.22;;;19.60;51.90;;;;;;4979699;28;20223;-70
2023/04/09 08:49:21;;;;;;;3.40;3.10;;;19.70;52.00;;;;;;4984370;28;20279;-70
2023/04/09 08:51:48;;;;;;;3.78;3.47;;;19.60;51.90;;;;;;4980265;28;20224;-71
2023/04/09 08:54:18;;;;;;;3.53;3.22;;;19.60;51.90;;;;;;4982370;28;20238;-70
2023/04/09 08:56:47;;;;;;;3.10;2.80;;;19.60;51.90;;;;;;4977787;28;20194;-71
2023/04/09 08:59:17;;;;;;;3.38;3.17;;;19.60;51.90;;;;;;4983377;28;20205;-71
2023/04/09 09:01:45;;;;;;;3.75;3.17;;;19.60;51.90;;;;;;4990884;28;20213;-71
2023/04/09 09:04:11;;;;;;;3.53;3.22;;;19.60;51.80;;;;;;4975363;28;20194;-71
2023/04/09 09:06:40;;;;;;;4.03;3.72;;;19.60;51.80;;;;;;4982581;28;20223;-71
2023/04/09 09:09:16;;;;;;;3.30;3.10;;;19.70;51.80;;;;;;4975786;28;20193;-70
2023/04/09 09:11:49;;;;;;;4.30;3.97;;;19.60;51.80;;;;;;4984079;28;20213;-71
2023/04/09 09:14:18;;;;;;;3.95;3.58;;;19.70;51.80;;;;;;4983385;28;20673;-71
2023/04/09 09:17:03;;;;;;;4.15;3.75;;;19.70;51.80;;;;;;4981722;28;20201;-71
2023/04/09 09:19:35;;;;;;;3.90;3.60;;;19.70;51.80;;;;;;4974131;28;20247;-71
2023/04/09 09:22:07;;;;;;;3.70;3.40;;;19.60;51.70;;;;;;4992812;28;20220;-71
2023/04/09 09:24:33;;;;;;;3.78;3.42;;;19.60;51.70;;;;;;4987973;28;20197;-70
2023/04/09 09:27:01;;;;;;;3.05;2.85;;;19.70;51.80;;;;;;4986125;28;20210;-70
2023/04/09 09:29:27;;;;;;;3.78;3.47;;;19.70;51.70;;;;;;4980436;28;20614;-70
2023/04/09 09:31:55;;;;;;;3.45;3.25;;;19.60;51.70;;;;;;4986660;28;20220;-70
2023/04/09 09:34:23;;;;;;;3.30;3.10;;;19.60;51.70;;;;;;4985698;28;20181;-70
2023/04/09 09:36:49;;;;;;;3.30;3.05;;;19.70;51.80;;;;;;4980549;28;20277;-71
2023/04/09 09:39:16;;;;;;;3.60;3.30;;;19.60;51.70;;;;;;4974865;28;20204;-71
2023/04/09 09:41:44;;;;;;;3.15;2.95;;;19.70;51.80;;;;;;4988546;28;20311;-71
2023/04/09 09:44:28;;;;;;;3.58;3.28;;;19.60;51.70;;;;;;4978428;28;20197;-70
2023/04/09 09:46:56;;;;;;;3.70;3.40;;;19.70;51.80;;;;;;4963081;28;20260;-70
2023/04/09 09:49:22;;;;;;;3.78;3.47;;;19.70;51.70;;;;;;4977325;28;20208;-70
2023/04/09 09:51:47;;;;;;;3.17;2.97;;;19.70;51.70;;;;;;4980319;28;20217;-71
2023/04/09 09:54:21;;;;;;;3.22;3.03;;;19.70;51.70;;;;;;4982675;28;20202;-70
2023/04/09 09:56:51;;;;;;;3.40;3.20;;;19.70;51.70;;;;;;4966729;28;20244;-71
2023/04/09 09:59:22;;;;;;;3.50;3.20;;;19.70;51.80;;;;;;4982467;28;20198;-70
2023/04/09 10:01:58;;;;;;;3.97;3.10;;;19.70;51.70;;;;;;4975787;28;20300;-68
2023/04/09 10:04:28;;;;;;;3.35;3.10;;;19.60;51.70;;;;;;4974719;28;20200;-70
2023/04/09 10:06:55;;;;;;;3.35;3.10;;;19.70;51.80;;;;;;4974625;28;20221;-70
2023/04/09 10:09:22;;;;;;;3.30;3.10;;;19.70;51.70;;;;;;4957979;28;20672;-70
2023/04/09 10:11:48;;;;;;;3.22;3.00;;;19.70;51.60;;;;;;4989710;28;20311;-70
2023/04/09 10:14:16;;;;;;;3.55;3.20;;;19.70;51.70;;;;;;4993451;28;20644;-71
2023/04/09 10:16:42;;;;;;;3.33;3.05;;;19.70;51.70;;;;;;4978523;28;20202;-71
2023/04/09 10:19:12;;;;;;;4.60;3.03;;;19.70;51.70;;;;;;4973442;28;20194;-70
2023/04/09 10:22:03;;;;;;;3.50;3.20;;;19.70;51.60;;;;;;4964934;28;20381;-71
2023/04/09 10:24:30;;;;;;;3.10;2.90;;;19.70;51.70;;;;;;4982248;28;20194;-71
2023/04/09 10:27:08;;;;;;;3.58;3.28;;;19.70;51.70;;;;;;4981261;28;20208;-70
2023/04/09 10:29:48;;;;;;;3.85;3.47;;;19.70;51.70;;;;;;4976446;28;20247;-70
2023/04/09 10:32:20;;;;;;;3.50;3.20;;;19.70;51.60;;;;;;4966850;28;20231;-70
2023/04/09 10:34:47;;;;;;;3.33;3.13;;;19.70;51.60;;;;;;4963524;28;20624;-70
2023/04/09 10:37:19;;;;;;;3.03;2.83;;;19.70;51.60;;;;;;4975145;28;20186;-70
2023/04/09 10:39:48;;;;;;;3.75;2.92;;;19.70;51.60;;;;;;4973543;28;20181;-68
2023/04/09 10:42:31;;;;;;;3.40;3.10;;;19.70;51.60;;;;;;4982284;28;20216;-70
2023/04/09 10:45:15;;;;;;;3.38;3.08;;;19.70;51.60;;;;;;4990134;28;20200;-70
2023/04/09 10:47:42;;;;;;;3.42;3.13;;;19.70;51.50;;;;;;4987499;28;20653;-70
2023/04/09 10:50:20;;;;;;;4.75;3.42;;;19.70;51.60;;;;;;4998493;28;20221;-68
2023/04/09 10:52:50;;;;;;;3.08;2.88;;;19.70;51.50;;;;;;4992660;28;20220;-69
2023/04/09 10:55:39;;;;;;;3.55;3.25;;;19.70;51.40;;;;;;4982880;28;20178;-70
2023/04/09 10:58:07;;;;;;;3.58;3.28;;;19.70;51.40;;;;;;4981656;28;20198;-70
2023/04/09 11:00:47;;;;;;;2.78;2.58;;;19.70;51.40;;;;;;4980827;28;20689;-70
2023/04/09 11:03:23;;;;;;;3.30;3.10;;;19.70;51.40;;;;;;4972750;28;20551;-70
2023/04/09 11:06:07;;;;;;;4.25;2.97;;;19.70;51.40;;;;;;4980131;28;20217;-70
2023/04/09 11:08:35;;;;;;;5.28;3.50;;;19.70;51.40;;;;;;4973101;28;20201;-70
2023/04/09 11:11:01;;;;;;;3.45;3.15;;;19.70;51.30;;;;;;4972808;28;20210;-71
2023/04/09 11:13:29;;;;;;;3.40;3.10;;;19.70;51.30;;;;;;4973994;28;20240;-70
2023/04/09 11:15:56;;;;;;;3.00;2.80;;;19.80;51.40;;;;;;4979835;28;20195;-70
2023/04/09 11:18:27;;;;;;;3.35;3.08;;;19.80;51.40;;;;;;4974875;28;20225;-69
2023/04/09 11:20:58;;;;;;;2.83;2.63;;;19.70;51.30;;;;;;4979514;28;20251;-70
2023/04/09 11:23:25;;;;;;;3.58;3.28;;;19.70;51.30;;;;;;4973198;28;20236;-70
2023/04/09 11:25:51;;;;;;;3.10;2.78;;;19.70;51.30;;;;;;4972948;28;20563;-70
2023/04/09 11:28:19;;;;;;;2.80;2.60;;;19.70;51.30;;;;;;4956148;28;20220;-69
2023/04/09 11:30:48;;;;;;;3.47;3.17;;;19.80;51.20;;;;;;4973033;28;20210;-70
2023/04/09 11:33:14;;;;;;;3.30;3.00;;;19.80;51.10;;;;;;4979248;28;20627;-69
2023/04/09 11:35:40;;;;;;;2.95;2.75;;;19.80;51.10;;;;;;4955997;28;20186;-70
2023/04/09 11:38:10;;;;;;;3.30;2.95;;;19.80;51.20;;;;;;4972578;28;20236;-70
2023/04/09 11:40:44;;;;;;;3.47;3.17;;;19.80;51.10;;;;;;4972408;28;20213;-70
2023/04/09 11:43:10;;;;;;;3.92;3.05;;;19.80;51.20;;;;;;4973552;28;20204;-70
2023/04/09 11:45:36;;;;;;;3.15;2.92;;;19.80;51.10;;;;;;4984757;28;20221;-70
2023/04/09 11:48:02;;;;;;;3.17;2.88;;;19.80;51.10;;;;;;4976244;28;20174;-70
2023/04/09 11:50:28;;;;;;;3.00;2.80;;;19.80;51.10;;;;;;4973800;28;20235;-70
2023/04/09 11:52:54;;;;;;;3.65;3.00;;;19.80;51.10;;;;;;4972727;28;20233;-70
2023/04/09 11:55:25;;;;;;;3.45;2.80;;;19.80;51.10;;;;;;4980385;28;20649;-69
2023/04/09 11:57:56;;;;;;;3.13;2.92;;;19.80;51.20;;;;;;4956724;28;20190;-70
2023/04/09 12:00:23;;;;;;;4.72;2.83;;;19.80;51.10;;;;;;4973287;28;20217;-69
2023/04/09 12:02:58;;;;;;;8.88;3.30;;;19.80;51.10;;;;;;4971673;28;20277;-69
2023/04/09 12:05:27;;;;;;;3.92;3.30;;;19.80;51.10;;;;;;4972153;28;20253;-69
2023/04/09 12:08:03;;;;;;;3.92;2.85;;;19.80;51.10;;;;;;4940397;28;20187;-69
2023/04/09 12:10:35;;;;;;;3.83;3.53;;;19.80;51.70;;;;;;4980349;28;20197;-67
2023/04/09 12:13:05;;;;;;;3.13;2.60;;;19.80;50.90;;;;;;4980637;28;20204;-69
2023/04/09 12:15:34;;;;;;;5.22;3.00;;;19.80;50.80;;;;;;4972282;28;20194;-69
2023/04/09 12:18:00;;;;;;;4.10;3.20;;;19.80;50.80;;;;;;4972242;28;20209;-69
2023/04/09 12:20:32;;;;;;;3.90;3.03;;;19.80;50.60;;;;;;4973542;28;20213;-69
2023/04/09 12:23:00;;;;;;;3.95;3.28;;;19.80;50.60;;;;;;4972921;28;20563;-69
2023/04/09 12:25:27;;;;;;;3.30;3.00;;;19.80;50.70;;;;;;4956034;28;20213;-70
2023/04/09 12:27:55;;;;;;;3.83;2.95;;;19.80;50.60;;;;;;4980268;28;20201;-70
2023/04/09 12:30:22;;;;;;;2.90;2.60;;;19.80;50.50;;;;;;4972956;28;20210;-69
2023/04/09 12:32:47;;;;;;;3.42;3.00;;;19.80;50.60;;;;;;4972197;28;20574;-70
2023/04/09 12:35:14;;;;;;;4.40;3.22;;;19.80;50.50;;;;;;4973390;28;20200;-69
2023/04/09 12:37:41;;;;;;;3.63;3.00;;;19.80;50.50;;;;;;4972629;28;20193;-69
2023/04/09 12:40:07;;;;;;;3.13;2.83;;;19.80;50.50;;;;;;4973661;28;20184;-69
2023/04/09 12:42:33;;;;;;;3.45;2.90;;;19.80;50.60;;;;;;4967957;28;20637;-69
2023/04/09 12:44:59;;;;;;;4.30;3.38;;;19.80;50.50;;;;;;4976133;28;20192;-69
2023/04/09 12:47:24;;;;;;;3.42;2.90;;;19.80;50.50;;;;;;4975805;28;20220;-69
2023/04/09 12:49:50;;;;;;;2.67;2.47;;;19.80;50.50;;;;;;4976252;28;20198;-70
2023/04/09 12:52:17;;;;;;;3.60;2.95;;;19.80;50.50;;;;;;4975514;28;20209;-69
2023/04/09 12:54:43;;;;;;;4.50;3.00;;;19.80;50.40;;;;;;4980632;28;20559;-69
2023/04/09 12:57:09;;;;;;;3.80;3.15;;;19.80;50.40;;;;;;4979077;28;20198;-69
2023/04/09 12:59:35;;;;;;;2.83;2.63;;;19.80;50.50;;;;;;4960212;28;20229;-69